sensor_id;sensor_type;location;lat;lon;timestamp;P1;durP1;ratioP1;P2;durP2;ratioP2
32108;SDS011;18624;50.042;8.436;2022-11-20T00:01:09;25.63;;;15.77;;
32108;SDS011;18624;50.042;8.436;2022-11-20T00:03:38;21.77;;;13.90;;
32108;SDS011;18624;50.042;8.436;2022-11-20T00:06:05;22.77;;;15.18;;
32108;SDS011;18624;50.042;8.436;2022-11-20T00:08:33;24.75;;;15.40;;
32108;SDS011;18624;50.042;8.436;2022-11-20T00:11:03;25.65;;;16.63;;
32108;SDS011;18624;50.042;8.436;2022-11-20T00:13:31;23.10;;;15.57;;
32108;SDS011;18624;50.042;8.436;2022-11-20T00:15:58;22.75;;;15.13;;
32108;SDS011;18624;50.042;8.436;2022-11-20T00:18:26;24.33;;;17.08;;
32108;SDS011;18624;50.042;8.436;2022-11-20T00:20:53;22.38;;;16.15;;
32108;SDS011;18624;50.042;8.436;2022-11-20T00:23:25;27.85;;;16.80;;
32108;SDS011;18624;50.042;8.436;2022-11-20T00:25:52;25.70;;;15.32;;
32108;SDS011;18624;50.042;8.436;2022-11-20T00:28:18;27.55;;;17.08;;
32108;SDS011;18624;50.042;8.436;2022-11-20T00:30:45;29.85;;;17.60;;
32108;SDS011;18624;50.042;8.436;2022-11-20T00:33:11;22.92;;;16.33;;
32108;SDS011;18624;50.042;8.436;2022-11-20T00:35:37;25.48;;;16.23;;
32108;SDS011;18624;50.042;8.436;2022-11-20T00:38:04;26.00;;;17.00;;
32108;SDS011;18624;50.042;8.436;2022-11-20T00:40:30;22.63;;;15.00;;
32108;SDS011;18624;50.042;8.436;2022-11-20T00:42:57;24.00;;;14.98;;
32108;SDS011;18624;50.042;8.436;2022-11-20T00:45:23;23.48;;;15.85;;
32108;SDS011;18624;50.042;8.436;2022-11-20T00:47:49;25.58;;;16.27;;
32108;SDS011;18624;50.042;8.436;2022-11-20T00:50:16;26.80;;;17.02;;
32108;SDS011;18624;50.042;8.436;2022-11-20T00:52:42;24.60;;;15.57;;
32108;SDS011;18624;50.042;8.436;2022-11-20T00:55:08;25.42;;;17.15;;
32108;SDS011;18624;50.042;8.436;2022-11-20T00:57:35;22.70;;;14.90;;
32108;SDS011;18624;50.042;8.436;2022-11-20T01:00:02;25.40;;;16.52;;
32108;SDS011;18624;50.042;8.436;2022-11-20T01:02:28;21.02;;;14.80;;
32108;SDS011;18624;50.042;8.436;2022-11-20T01:04:55;26.23;;;15.82;;
32108;SDS011;18624;50.042;8.436;2022-11-20T01:07:21;25.20;;;16.75;;
32108;SDS011;18624;50.042;8.436;2022-11-20T01:09:48;25.50;;;15.50;;
32108;SDS011;18624;50.042;8.436;2022-11-20T01:12:14;23.45;;;15.75;;
32108;SDS011;18624;50.042;8.436;2022-11-20T01:14:40;22.98;;;15.18;;
32108;SDS011;18624;50.042;8.436;2022-11-20T01:17:07;24.40;;;15.85;;
32108;SDS011;18624;50.042;8.436;2022-11-20T01:19:33;26.20;;;16.33;;
32108;SDS011;18624;50.042;8.436;2022-11-20T01:22:00;26.48;;;16.60;;
32108;SDS011;18624;50.042;8.436;2022-11-20T01:24:26;26.05;;;17.15;;
32108;SDS011;18624;50.042;8.436;2022-11-20T01:26:52;27.55;;;16.17;;
32108;SDS011;18624;50.042;8.436;2022-11-20T01:29:20;25.85;;;16.52;;
32108;SDS011;18624;50.042;8.436;2022-11-20T01:31:49;24.77;;;17.25;;
32108;SDS011;18624;50.042;8.436;2022-11-20T01:34:17;25.70;;;15.88;;
32108;SDS011;18624;50.042;8.436;2022-11-20T01:36:45;27.40;;;17.10;;
32108;SDS011;18624;50.042;8.436;2022-11-20T01:39:19;29.75;;;18.02;;
32108;SDS011;18624;50.042;8.436;2022-11-20T01:41:49;25.30;;;17.05;;
32108;SDS011;18624;50.042;8.436;2022-11-20T01:44:50;26.40;;;17.73;;
32108;SDS011;18624;50.042;8.436;2022-11-20T01:47:58;25.38;;;16.83;;
32108;SDS011;18624;50.042;8.436;2022-11-20T01:52:52;29.77;;;17.17;;
32108;SDS011;18624;50.042;8.436;2022-11-20T01:55:27;25.75;;;16.30;;
32108;SDS011;18624;50.042;8.436;2022-11-20T01:57:58;24.58;;;17.42;;
32108;SDS011;18624;50.042;8.436;2022-11-20T02:00:25;24.13;;;15.52;;
32108;SDS011;18624;50.042;8.436;2022-11-20T02:02:53;23.42;;;16.58;;
32108;SDS011;18624;50.042;8.436;2022-11-20T02:05:33;28.35;;;18.27;;
32108;SDS011;18624;50.042;8.436;2022-11-20T02:08:05;23.83;;;15.98;;
32108;SDS011;18624;50.042;8.436;2022-11-20T02:10:33;26.90;;;15.23;;
32108;SDS011;18624;50.042;8.436;2022-11-20T02:12:59;25.67;;;16.73;;
32108;SDS011;18624;50.042;8.436;2022-11-20T02:15:44;25.92;;;15.90;;
32108;SDS011;18624;50.042;8.436;2022-11-20T02:18:13;27.08;;;16.90;;
32108;SDS011;18624;50.042;8.436;2022-11-20T02:20:45;26.65;;;16.45;;
32108;SDS011;18624;50.042;8.436;2022-11-20T02:23:17;26.95;;;17.48;;
32108;SDS011;18624;50.042;8.436;2022-11-20T02:25:59;25.52;;;18.20;;
32108;SDS011;18624;50.042;8.436;2022-11-20T02:28:29;27.33;;;17.88;;
32108;SDS011;18624;50.042;8.436;2022-11-20T02:30:55;30.10;;;17.63;;
32108;SDS011;18624;50.042;8.436;2022-11-20T02:33:22;30.67;;;18.92;;
32108;SDS011;18624;50.042;8.436;2022-11-20T02:35:48;24.45;;;17.10;;
32108;SDS011;18624;50.042;8.436;2022-11-20T02:38:15;29.23;;;18.77;;
32108;SDS011;18624;50.042;8.436;2022-11-20T02:40:41;28.30;;;18.75;;
32108;SDS011;18624;50.042;8.436;2022-11-20T02:43:08;29.38;;;19.02;;
32108;SDS011;18624;50.042;8.436;2022-11-20T02:45:35;29.98;;;19.70;;
32108;SDS011;18624;50.042;8.436;2022-11-20T02:48:02;28.15;;;17.33;;
32108;SDS011;18624;50.042;8.436;2022-11-20T02:50:28;27.58;;;17.55;;
32108;SDS011;18624;50.042;8.436;2022-11-20T02:52:55;29.05;;;17.75;;
32108;SDS011;18624;50.042;8.436;2022-11-20T02:55:21;28.65;;;19.38;;
32108;SDS011;18624;50.042;8.436;2022-11-20T02:57:48;27.23;;;17.20;;
32108;SDS011;18624;50.042;8.436;2022-11-20T03:00:14;29.20;;;18.40;;
32108;SDS011;18624;50.042;8.436;2022-11-20T03:02:41;31.05;;;19.25;;
32108;SDS011;18624;50.042;8.436;2022-11-20T03:05:07;31.83;;;18.83;;
32108;SDS011;18624;50.042;8.436;2022-11-20T03:07:34;31.40;;;18.52;;
32108;SDS011;18624;50.042;8.436;2022-11-20T03:10:00;26.70;;;17.13;;
32108;SDS011;18624;50.042;8.436;2022-11-20T03:12:27;27.75;;;17.17;;
32108;SDS011;18624;50.042;8.436;2022-11-20T03:14:53;30.27;;;19.00;;
32108;SDS011;18624;50.042;8.436;2022-11-20T03:17:19;26.65;;;17.73;;
32108;SDS011;18624;50.042;8.436;2022-11-20T03:19:46;28.48;;;18.40;;
32108;SDS011;18624;50.042;8.436;2022-11-20T03:22:12;31.40;;;18.77;;
32108;SDS011;18624;50.042;8.436;2022-11-20T03:24:39;29.17;;;18.00;;
32108;SDS011;18624;50.042;8.436;2022-11-20T03:27:05;26.48;;;17.63;;
32108;SDS011;18624;50.042;8.436;2022-11-20T03:29:32;31.10;;;19.15;;
32108;SDS011;18624;50.042;8.436;2022-11-20T03:31:59;27.02;;;18.33;;
32108;SDS011;18624;50.042;8.436;2022-11-20T03:34:25;28.17;;;18.45;;
32108;SDS011;18624;50.042;8.436;2022-11-20T03:36:52;28.48;;;19.05;;
32108;SDS011;18624;50.042;8.436;2022-11-20T03:39:18;29.90;;;19.50;;
32108;SDS011;18624;50.042;8.436;2022-11-20T03:41:45;28.90;;;19.25;;
32108;SDS011;18624;50.042;8.436;2022-11-20T03:44:12;29.55;;;19.30;;
32108;SDS011;18624;50.042;8.436;2022-11-20T03:46:38;30.77;;;19.35;;
32108;SDS011;18624;50.042;8.436;2022-11-20T03:49:05;29.67;;;18.75;;
32108;SDS011;18624;50.042;8.436;2022-11-20T03:51:32;25.15;;;16.85;;
32108;SDS011;18624;50.042;8.436;2022-11-20T03:54:04;32.08;;;19.55;;
32108;SDS011;18624;50.042;8.436;2022-11-20T03:56:34;28.63;;;18.00;;
32108;SDS011;18624;50.042;8.436;2022-11-20T03:59:02;33.25;;;20.55;;
32108;SDS011;18624;50.042;8.436;2022-11-20T04:01:30;27.95;;;19.33;;
32108;SDS011;18624;50.042;8.436;2022-11-20T04:03:58;27.50;;;17.08;;
32108;SDS011;18624;50.042;8.436;2022-11-20T04:06:28;32.30;;;20.20;;
32108;SDS011;18624;50.042;8.436;2022-11-20T04:08:57;34.38;;;19.77;;
32108;SDS011;18624;50.042;8.436;2022-11-20T04:11:25;31.75;;;19.10;;
32108;SDS011;18624;50.042;8.436;2022-11-20T04:13:54;28.27;;;18.27;;
32108;SDS011;18624;50.042;8.436;2022-11-20T04:16:26;30.33;;;19.15;;
32108;SDS011;18624;50.042;8.436;2022-11-20T04:18:56;29.65;;;19.25;;
32108;SDS011;18624;50.042;8.436;2022-11-20T04:21:24;30.67;;;18.88;;
32108;SDS011;18624;50.042;8.436;2022-11-20T04:23:52;33.78;;;19.98;;
32108;SDS011;18624;50.042;8.436;2022-11-20T04:26:19;32.35;;;20.63;;
32108;SDS011;18624;50.042;8.436;2022-11-20T04:28:46;30.23;;;19.17;;
32108;SDS011;18624;50.042;8.436;2022-11-20T04:31:14;35.50;;;22.60;;
32108;SDS011;18624;50.042;8.436;2022-11-20T04:33:41;28.45;;;19.60;;
32108;SDS011;18624;50.042;8.436;2022-11-20T04:36:12;31.42;;;18.65;;
32108;SDS011;18624;50.042;8.436;2022-11-20T04:38:41;25.73;;;17.55;;
32108;SDS011;18624;50.042;8.436;2022-11-20T04:41:08;30.38;;;18.38;;
32108;SDS011;18624;50.042;8.436;2022-11-20T04:43:40;31.73;;;19.17;;
32108;SDS011;18624;50.042;8.436;2022-11-20T04:46:07;29.27;;;18.98;;
32108;SDS011;18624;50.042;8.436;2022-11-20T04:48:34;32.42;;;19.63;;
32108;SDS011;18624;50.042;8.436;2022-11-20T04:51:04;32.38;;;19.73;;
32108;SDS011;18624;50.042;8.436;2022-11-20T04:53:30;35.67;;;21.25;;
32108;SDS011;18624;50.042;8.436;2022-11-20T04:56:00;27.48;;;18.92;;
32108;SDS011;18624;50.042;8.436;2022-11-20T04:58:28;31.88;;;19.92;;
32108;SDS011;18624;50.042;8.436;2022-11-20T05:03:50;31.98;;;19.65;;
32108;SDS011;18624;50.042;8.436;2022-11-20T05:06:17;28.83;;;18.23;;
32108;SDS011;18624;50.042;8.436;2022-11-20T05:08:44;29.92;;;19.77;;
32108;SDS011;18624;50.042;8.436;2022-11-20T05:11:12;31.10;;;19.98;;
32108;SDS011;18624;50.042;8.436;2022-11-20T05:13:40;33.28;;;20.98;;
32108;SDS011;18624;50.042;8.436;2022-11-20T05:16:11;30.73;;;19.33;;
32108;SDS011;18624;50.042;8.436;2022-11-20T05:18:40;33.05;;;21.02;;
32108;SDS011;18624;50.042;8.436;2022-11-20T05:21:07;34.95;;;22.05;;
32108;SDS011;18624;50.042;8.436;2022-11-20T05:23:35;33.92;;;19.88;;
32108;SDS011;18624;50.042;8.436;2022-11-20T05:26:03;33.80;;;20.75;;
32108;SDS011;18624;50.042;8.436;2022-11-20T05:28:30;30.30;;;18.83;;
32108;SDS011;18624;50.042;8.436;2022-11-20T05:31:07;34.05;;;19.08;;
32108;SDS011;18624;50.042;8.436;2022-11-20T05:33:35;34.10;;;22.13;;
32108;SDS011;18624;50.042;8.436;2022-11-20T05:36:03;29.90;;;19.45;;
32108;SDS011;18624;50.042;8.436;2022-11-20T05:38:29;30.50;;;19.55;;
32108;SDS011;18624;50.042;8.436;2022-11-20T05:41:02;33.60;;;21.42;;
32108;SDS011;18624;50.042;8.436;2022-11-20T05:43:34;32.95;;;20.88;;
32108;SDS011;18624;50.042;8.436;2022-11-20T05:46:01;30.83;;;19.17;;
32108;SDS011;18624;50.042;8.436;2022-11-20T05:48:29;32.22;;;19.63;;
32108;SDS011;18624;50.042;8.436;2022-11-20T05:50:56;33.47;;;22.75;;
32108;SDS011;18624;50.042;8.436;2022-11-20T05:53:24;34.28;;;21.02;;
32108;SDS011;18624;50.042;8.436;2022-11-20T05:58:26;30.95;;;20.80;;
32108;SDS011;18624;50.042;8.436;2022-11-20T06:00:53;30.63;;;19.10;;
32108;SDS011;18624;50.042;8.436;2022-11-20T06:03:19;34.83;;;22.90;;
32108;SDS011;18624;50.042;8.436;2022-11-20T06:05:46;37.75;;;20.50;;
32108;SDS011;18624;50.042;8.436;2022-11-20T06:08:12;29.83;;;19.23;;
32108;SDS011;18624;50.042;8.436;2022-11-20T06:10:39;37.47;;;22.17;;
32108;SDS011;18624;50.042;8.436;2022-11-20T06:13:05;43.35;;;24.23;;
32108;SDS011;18624;50.042;8.436;2022-11-20T06:15:31;34.30;;;20.38;;
32108;SDS011;18624;50.042;8.436;2022-11-20T06:17:58;37.80;;;22.75;;
32108;SDS011;18624;50.042;8.436;2022-11-20T06:20:25;39.05;;;21.67;;
32108;SDS011;18624;50.042;8.436;2022-11-20T06:22:52;39.38;;;23.20;;
32108;SDS011;18624;50.042;8.436;2022-11-20T06:25:18;40.35;;;23.80;;
32108;SDS011;18624;50.042;8.436;2022-11-20T06:27:45;38.08;;;22.15;;
32108;SDS011;18624;50.042;8.436;2022-11-20T06:30:11;39.38;;;21.65;;
32108;SDS011;18624;50.042;8.436;2022-11-20T06:32:38;42.00;;;23.60;;
32108;SDS011;18624;50.042;8.436;2022-11-20T06:35:04;38.08;;;22.48;;
32108;SDS011;18624;50.042;8.436;2022-11-20T06:37:31;42.15;;;23.75;;
32108;SDS011;18624;50.042;8.436;2022-11-20T06:39:57;37.13;;;21.65;;
32108;SDS011;18624;50.042;8.436;2022-11-20T06:42:24;43.25;;;23.15;;
32108;SDS011;18624;50.042;8.436;2022-11-20T06:44:50;39.70;;;22.60;;
32108;SDS011;18624;50.042;8.436;2022-11-20T06:47:16;43.78;;;24.38;;
32108;SDS011;18624;50.042;8.436;2022-11-20T06:49:43;35.88;;;21.73;;
32108;SDS011;18624;50.042;8.436;2022-11-20T06:52:09;40.55;;;23.50;;
32108;SDS011;18624;50.042;8.436;2022-11-20T06:54:36;37.75;;;22.02;;
32108;SDS011;18624;50.042;8.436;2022-11-20T06:57:02;37.35;;;23.75;;
32108;SDS011;18624;50.042;8.436;2022-11-20T06:59:28;38.65;;;22.08;;
32108;SDS011;18624;50.042;8.436;2022-11-20T07:01:55;39.42;;;23.25;;
32108;SDS011;18624;50.042;8.436;2022-11-20T07:04:21;40.17;;;22.42;;
32108;SDS011;18624;50.042;8.436;2022-11-20T07:06:48;38.75;;;22.73;;
32108;SDS011;18624;50.042;8.436;2022-11-20T07:09:14;36.08;;;23.00;;
32108;SDS011;18624;50.042;8.436;2022-11-20T07:11:41;39.38;;;23.17;;
32108;SDS011;18624;50.042;8.436;2022-11-20T07:14:07;36.85;;;22.50;;
32108;SDS011;18624;50.042;8.436;2022-11-20T07:16:33;37.92;;;21.17;;
32108;SDS011;18624;50.042;8.436;2022-11-20T07:19:00;42.67;;;23.88;;
32108;SDS011;18624;50.042;8.436;2022-11-20T07:21:26;36.28;;;21.50;;
32108;SDS011;18624;50.042;8.436;2022-11-20T07:23:52;41.92;;;22.60;;
32108;SDS011;18624;50.042;8.436;2022-11-20T07:26:19;40.90;;;23.15;;
32108;SDS011;18624;50.042;8.436;2022-11-20T07:28:45;42.63;;;24.13;;
32108;SDS011;18624;50.042;8.436;2022-11-20T07:31:12;42.50;;;23.55;;
32108;SDS011;18624;50.042;8.436;2022-11-20T07:33:44;42.83;;;24.07;;
32108;SDS011;18624;50.042;8.436;2022-11-20T07:36:10;39.22;;;21.27;;
32108;SDS011;18624;50.042;8.436;2022-11-20T07:38:37;39.80;;;23.35;;
32108;SDS011;18624;50.042;8.436;2022-11-20T07:41:04;37.78;;;21.75;;
32108;SDS011;18624;50.042;8.436;2022-11-20T07:43:30;36.92;;;21.65;;
32108;SDS011;18624;50.042;8.436;2022-11-20T07:46:02;41.42;;;23.33;;
32108;SDS011;18624;50.042;8.436;2022-11-20T07:48:29;36.78;;;21.15;;
32108;SDS011;18624;50.042;8.436;2022-11-20T07:50:56;30.27;;;19.02;;
32108;SDS011;18624;50.042;8.436;2022-11-20T07:53:23;32.88;;;19.95;;
32108;SDS011;18624;50.042;8.436;2022-11-20T07:55:49;35.63;;;20.88;;
32108;SDS011;18624;50.042;8.436;2022-11-20T07:58:18;34.55;;;20.38;;
32108;SDS011;18624;50.042;8.436;2022-11-20T08:00:46;32.92;;;20.52;;
32108;SDS011;18624;50.042;8.436;2022-11-20T08:03:12;34.83;;;20.83;;
32108;SDS011;18624;50.042;8.436;2022-11-20T08:05:39;37.53;;;21.08;;
32108;SDS011;18624;50.042;8.436;2022-11-20T08:08:06;34.05;;;20.77;;
32108;SDS011;18624;50.042;8.436;2022-11-20T08:10:33;37.20;;;21.33;;
32108;SDS011;18624;50.042;8.436;2022-11-20T08:13:00;31.52;;;19.52;;
32108;SDS011;18624;50.042;8.436;2022-11-20T08:15:48;33.47;;;21.15;;
32108;SDS011;18624;50.042;8.436;2022-11-20T08:18:18;37.50;;;19.65;;
32108;SDS011;18624;50.042;8.436;2022-11-20T08:21:03;37.05;;;20.27;;
32108;SDS011;18624;50.042;8.436;2022-11-20T08:23:30;34.17;;;19.33;;
32108;SDS011;18624;50.042;8.436;2022-11-20T08:25:56;33.20;;;20.42;;
32108;SDS011;18624;50.042;8.436;2022-11-20T08:28:23;36.85;;;20.40;;
32108;SDS011;18624;50.042;8.436;2022-11-20T08:30:50;34.40;;;19.95;;
32108;SDS011;18624;50.042;8.436;2022-11-20T08:33:17;39.67;;;22.63;;
32108;SDS011;18624;50.042;8.436;2022-11-20T08:35:44;40.20;;;22.05;;
32108;SDS011;18624;50.042;8.436;2022-11-20T08:38:10;36.00;;;20.40;;
32108;SDS011;18624;50.042;8.436;2022-11-20T08:40:37;40.33;;;21.70;;
32108;SDS011;18624;50.042;8.436;2022-11-20T08:43:03;44.33;;;23.90;;
32108;SDS011;18624;50.042;8.436;2022-11-20T08:45:30;37.03;;;20.38;;
32108;SDS011;18624;50.042;8.436;2022-11-20T08:48:01;36.13;;;21.10;;
32108;SDS011;18624;50.042;8.436;2022-11-20T08:50:28;37.72;;;22.10;;
32108;SDS011;18624;50.042;8.436;2022-11-20T08:53:01;38.83;;;21.30;;
32108;SDS011;18624;50.042;8.436;2022-11-20T08:55:31;39.33;;;22.67;;
32108;SDS011;18624;50.042;8.436;2022-11-20T08:58:02;42.45;;;23.02;;
32108;SDS011;18624;50.042;8.436;2022-11-20T09:00:30;38.45;;;23.60;;
32108;SDS011;18624;50.042;8.436;2022-11-20T09:02:56;39.58;;;21.67;;
32108;SDS011;18624;50.042;8.436;2022-11-20T09:05:24;38.85;;;22.33;;
32108;SDS011;18624;50.042;8.436;2022-11-20T09:07:50;38.35;;;22.20;;
32108;SDS011;18624;50.042;8.436;2022-11-20T09:10:17;40.92;;;22.77;;
32108;SDS011;18624;50.042;8.436;2022-11-20T09:12:51;41.50;;;22.52;;
32108;SDS011;18624;50.042;8.436;2022-11-20T09:15:18;40.58;;;22.00;;
32108;SDS011;18624;50.042;8.436;2022-11-20T09:20:18;36.50;;;22.52;;
32108;SDS011;18624;50.042;8.436;2022-11-20T09:22:46;41.30;;;23.15;;
32108;SDS011;18624;50.042;8.436;2022-11-20T09:25:12;42.75;;;23.98;;
32108;SDS011;18624;50.042;8.436;2022-11-20T09:27:39;32.28;;;19.48;;
32108;SDS011;18624;50.042;8.436;2022-11-20T09:30:07;41.10;;;23.45;;
32108;SDS011;18624;50.042;8.436;2022-11-20T09:32:34;38.03;;;21.60;;
32108;SDS011;18624;50.042;8.436;2022-11-20T09:35:01;37.08;;;20.60;;
32108;SDS011;18624;50.042;8.436;2022-11-20T09:37:28;35.95;;;21.73;;
32108;SDS011;18624;50.042;8.436;2022-11-20T09:39:55;39.38;;;25.23;;
32108;SDS011;18624;50.042;8.436;2022-11-20T09:42:41;39.17;;;24.05;;
32108;SDS011;18624;50.042;8.436;2022-11-20T09:51:16;33.70;;;21.17;;
32108;SDS011;18624;50.042;8.436;2022-11-20T09:54:09;37.50;;;22.42;;
32108;SDS011;18624;50.042;8.436;2022-11-20T09:56:43;39.10;;;22.70;;
32108;SDS011;18624;50.042;8.436;2022-11-20T09:59:59;40.50;;;21.65;;
32108;SDS011;18624;50.042;8.436;2022-11-20T10:02:21;33.90;;;19.88;;
32108;SDS011;18624;50.042;8.436;2022-11-20T10:07:37;36.50;;;21.83;;
32108;SDS011;18624;50.042;8.436;2022-11-20T10:10:28;47.03;;;25.00;;
32108;SDS011;18624;50.042;8.436;2022-11-20T10:13:35;42.85;;;27.80;;
32108;SDS011;18624;50.042;8.436;2022-11-20T10:19:23;43.42;;;29.92;;
32108;SDS011;18624;50.042;8.436;2022-11-20T10:22:35;48.33;;;25.73;;
32108;SDS011;18624;50.042;8.436;2022-11-20T10:25:19;39.70;;;22.42;;
32108;SDS011;18624;50.042;8.436;2022-11-20T10:27:52;38.38;;;21.83;;
32108;SDS011;18624;50.042;8.436;2022-11-20T10:30:26;37.17;;;23.75;;
32108;SDS011;18624;50.042;8.436;2022-11-20T10:33:06;41.20;;;25.17;;
32108;SDS011;18624;50.042;8.436;2022-11-20T10:35:50;28.63;;;18.13;;
32108;SDS011;18624;50.042;8.436;2022-11-20T10:38:46;42.08;;;25.58;;
32108;SDS011;18624;50.042;8.436;2022-11-20T10:41:20;42.00;;;24.67;;
32108;SDS011;18624;50.042;8.436;2022-11-20T10:43:52;37.30;;;21.50;;
32108;SDS011;18624;50.042;8.436;2022-11-20T10:46:24;41.92;;;23.55;;
32108;SDS011;18624;50.042;8.436;2022-11-20T10:48:52;39.95;;;23.88;;
32108;SDS011;18624;50.042;8.436;2022-11-20T10:51:30;34.80;;;21.95;;
32108;SDS011;18624;50.042;8.436;2022-11-20T10:56:51;36.58;;;22.50;;
32108;SDS011;18624;50.042;8.436;2022-11-20T11:02:01;30.70;;;19.35;;
32108;SDS011;18624;50.042;8.436;2022-11-20T11:04:40;33.63;;;20.30;;
32108;SDS011;18624;50.042;8.436;2022-11-20T11:07:19;33.63;;;22.05;;
32108;SDS011;18624;50.042;8.436;2022-11-20T11:09:53;38.38;;;23.35;;
32108;SDS011;18624;50.042;8.436;2022-11-20T11:12:21;33.20;;;20.92;;
32108;SDS011;18624;50.042;8.436;2022-11-20T11:14:52;31.30;;;20.42;;
32108;SDS011;18624;50.042;8.436;2022-11-20T11:17:22;33.00;;;19.55;;
32108;SDS011;18624;50.042;8.436;2022-11-20T11:22:28;31.95;;;20.67;;
32108;SDS011;18624;50.042;8.436;2022-11-20T11:24:58;33.33;;;22.80;;
32108;SDS011;18624;50.042;8.436;2022-11-20T11:27:26;35.15;;;20.98;;
32108;SDS011;18624;50.042;8.436;2022-11-20T11:33:03;25.92;;;15.88;;
32108;SDS011;18624;50.042;8.436;2022-11-20T11:35:31;35.58;;;22.55;;
32108;SDS011;18624;50.042;8.436;2022-11-20T11:38:03;34.65;;;21.02;;
32108;SDS011;18624;50.042;8.436;2022-11-20T11:40:33;31.67;;;20.98;;
32108;SDS011;18624;50.042;8.436;2022-11-20T11:43:15;33.90;;;21.85;;
32108;SDS011;18624;50.042;8.436;2022-11-20T11:46:04;35.13;;;20.00;;
32108;SDS011;18624;50.042;8.436;2022-11-20T11:48:57;33.67;;;21.33;;
32108;SDS011;18624;50.042;8.436;2022-11-20T11:51:34;30.00;;;19.75;;
32108;SDS011;18624;50.042;8.436;2022-11-20T11:54:09;34.40;;;20.83;;
32108;SDS011;18624;50.042;8.436;2022-11-20T11:56:42;32.33;;;20.13;;
32108;SDS011;18624;50.042;8.436;2022-11-20T11:59:12;32.38;;;20.40;;
32108;SDS011;18624;50.042;8.436;2022-11-20T12:01:51;33.55;;;21.25;;
32108;SDS011;18624;50.042;8.436;2022-11-20T12:04:43;30.75;;;20.70;;
32108;SDS011;18624;50.042;8.436;2022-11-20T12:07:29;37.67;;;23.63;;
32108;SDS011;18624;50.042;8.436;2022-11-20T12:10:17;34.78;;;21.15;;
32108;SDS011;18624;50.042;8.436;2022-11-20T12:12:51;30.63;;;19.15;;
32108;SDS011;18624;50.042;8.436;2022-11-20T12:15:31;34.35;;;21.30;;
32108;SDS011;18624;50.042;8.436;2022-11-20T12:18:00;33.72;;;21.42;;
32108;SDS011;18624;50.042;8.436;2022-11-20T12:20:29;30.45;;;19.10;;
32108;SDS011;18624;50.042;8.436;2022-11-20T12:25:52;31.70;;;21.27;;
32108;SDS011;18624;50.042;8.436;2022-11-20T12:37:53;30.38;;;20.75;;
32108;SDS011;18624;50.042;8.436;2022-11-20T12:40:07;30.45;;;20.42;;
32108;SDS011;18624;50.042;8.436;2022-11-20T12:46:24;30.05;;;19.00;;
32108;SDS011;18624;50.042;8.436;2022-11-20T12:48:56;29.33;;;19.27;;
32108;SDS011;18624;50.042;8.436;2022-11-20T12:54:25;30.65;;;17.85;;
32108;SDS011;18624;50.042;8.436;2022-11-20T13:02:43;32.78;;;19.83;;
32108;SDS011;18624;50.042;8.436;2022-11-20T13:08:25;26.67;;;17.55;;
32108;SDS011;18624;50.042;8.436;2022-11-20T13:13:49;26.08;;;18.13;;
32108;SDS011;18624;50.042;8.436;2022-11-20T13:19:03;24.25;;;17.98;;
32108;SDS011;18624;50.042;8.436;2022-11-20T13:21:44;26.30;;;17.30;;
32108;SDS011;18624;50.042;8.436;2022-11-20T13:26:46;24.63;;;16.17;;
32108;SDS011;18624;50.042;8.436;2022-11-20T13:29:18;26.70;;;17.70;;
32108;SDS011;18624;50.042;8.436;2022-11-20T13:31:46;25.15;;;17.05;;
32108;SDS011;18624;50.042;8.436;2022-11-20T13:34:22;22.40;;;16.10;;
32108;SDS011;18624;50.042;8.436;2022-11-20T13:36:52;25.15;;;18.00;;
32108;SDS011;18624;50.042;8.436;2022-11-20T13:39:26;23.73;;;15.80;;
32108;SDS011;18624;50.042;8.436;2022-11-20T13:42:43;22.42;;;15.73;;
32108;SDS011;18624;50.042;8.436;2022-11-20T13:44:47;23.48;;;16.38;;
32108;SDS011;18624;50.042;8.436;2022-11-20T13:47:23;19.67;;;14.10;;
32108;SDS011;18624;50.042;8.436;2022-11-20T13:49:51;23.00;;;16.92;;
32108;SDS011;18624;50.042;8.436;2022-11-20T13:55:07;24.13;;;15.55;;
32108;SDS011;18624;50.042;8.436;2022-11-20T14:02:39;22.35;;;16.15;;
32108;SDS011;18624;50.042;8.436;2022-11-20T14:05:11;24.55;;;16.33;;
32108;SDS011;18624;50.042;8.436;2022-11-20T14:07:46;28.23;;;17.42;;
32108;SDS011;18624;50.042;8.436;2022-11-20T14:12:56;24.15;;;15.00;;
32108;SDS011;18624;50.042;8.436;2022-11-20T14:15:24;20.67;;;13.63;;
32108;SDS011;18624;50.042;8.436;2022-11-20T14:17:50;21.23;;;14.45;;
32108;SDS011;18624;50.042;8.436;2022-11-20T14:20:17;20.80;;;14.68;;
32108;SDS011;18624;50.042;8.436;2022-11-20T14:22:49;18.73;;;13.82;;
32108;SDS011;18624;50.042;8.436;2022-11-20T14:25:20;19.23;;;13.10;;
32108;SDS011;18624;50.042;8.436;2022-11-20T14:27:53;17.35;;;12.95;;
32108;SDS011;18624;50.042;8.436;2022-11-20T14:30:26;19.38;;;13.70;;
32108;SDS011;18624;50.042;8.436;2022-11-20T14:32:56;17.57;;;12.37;;
32108;SDS011;18624;50.042;8.436;2022-11-20T14:35:29;17.15;;;12.18;;
32108;SDS011;18624;50.042;8.436;2022-11-20T14:38:01;19.90;;;13.95;;
32108;SDS011;18624;50.042;8.436;2022-11-20T14:40:33;20.88;;;13.77;;
32108;SDS011;18624;50.042;8.436;2022-11-20T14:43:04;18.42;;;12.38;;
32108;SDS011;18624;50.042;8.436;2022-11-20T14:45:44;18.15;;;13.60;;
32108;SDS011;18624;50.042;8.436;2022-11-20T14:48:14;20.33;;;14.32;;
32108;SDS011;18624;50.042;8.436;2022-11-20T14:50:41;17.38;;;12.93;;
32108;SDS011;18624;50.042;8.436;2022-11-20T14:53:08;18.05;;;12.20;;
32108;SDS011;18624;50.042;8.436;2022-11-20T14:55:35;14.35;;;10.23;;
32108;SDS011;18624;50.042;8.436;2022-11-20T14:58:05;14.93;;;11.38;;
32108;SDS011;18624;50.042;8.436;2022-11-20T15:01:11;15.82;;;11.65;;
32108;SDS011;18624;50.042;8.436;2022-11-20T15:03:39;18.00;;;12.63;;
32108;SDS011;18624;50.042;8.436;2022-11-20T15:06:07;16.65;;;11.80;;
32108;SDS011;18624;50.042;8.436;2022-11-20T15:08:37;14.15;;;10.07;;
32108;SDS011;18624;50.042;8.436;2022-11-20T15:11:14;13.23;;;10.18;;
32108;SDS011;18624;50.042;8.436;2022-11-20T15:13:44;15.43;;;11.35;;
32108;SDS011;18624;50.042;8.436;2022-11-20T15:16:17;15.15;;;10.95;;
32108;SDS011;18624;50.042;8.436;2022-11-20T15:18:45;17.30;;;11.52;;
32108;SDS011;18624;50.042;8.436;2022-11-20T15:21:16;16.95;;;12.60;;
32108;SDS011;18624;50.042;8.436;2022-11-20T15:23:44;19.13;;;13.38;;
32108;SDS011;18624;50.042;8.436;2022-11-20T15:26:11;21.77;;;14.63;;
32108;SDS011;18624;50.042;8.436;2022-11-20T15:28:46;21.25;;;14.85;;
32108;SDS011;18624;50.042;8.436;2022-11-20T15:31:17;21.60;;;15.68;;
32108;SDS011;18624;50.042;8.436;2022-11-20T15:33:45;19.98;;;14.68;;
32108;SDS011;18624;50.042;8.436;2022-11-20T15:36:12;19.45;;;14.10;;
32108;SDS011;18624;50.042;8.436;2022-11-20T15:38:39;20.67;;;14.68;;
32108;SDS011;18624;50.042;8.436;2022-11-20T15:41:06;20.80;;;14.13;;
32108;SDS011;18624;50.042;8.436;2022-11-20T15:43:32;17.45;;;12.75;;
32108;SDS011;18624;50.042;8.436;2022-11-20T15:46:03;19.10;;;13.07;;
32108;SDS011;18624;50.042;8.436;2022-11-20T15:53:54;18.77;;;13.05;;
32108;SDS011;18624;50.042;8.436;2022-11-20T15:56:20;21.75;;;14.25;;
32108;SDS011;18624;50.042;8.436;2022-11-20T15:58:47;19.42;;;13.90;;
32108;SDS011;18624;50.042;8.436;2022-11-20T16:01:14;18.75;;;13.07;;
32108;SDS011;18624;50.042;8.436;2022-11-20T16:03:43;18.42;;;12.57;;